Time;durP1;ratioP1;P1;durP2;ratioP2;P2;SDS_P1;SDS_P2;PMS_P1;PMS_P2;Temp;Humidity;BMP_temperature;BMP_pressure;BME280_temperature;BME280_humidity;BME280_pressure;Samples;Min_cycle;Max_cycle;Signal;HPM_P1;HPM_P2
2023/05/20 00:00:00;;;;;;;24.40;15.20;;;;;;;12.05;83.64;100904.55;218934;1254;142383;-66
2023/05/20 00:05:26;;;;;;;22.50;16.20;;;;;;;12.05;83.78;100903.80;219027;1254;224782;-67
2023/05/20 00:10:31;;;;;;;19.80;16.70;;;;;;;12.05;83.76;100900.07;220022;1254;141342;-67
2023/05/20 00:15:36;;;;;;;23.10;16.20;;;;;;;12.05;83.74;100899.52;219624;1255;140837;-67
2023/05/20 00:20:42;;;;;;;24.20;16.90;;;;;;;12.05;83.89;100899.00;218768;1254;140335;-66
2023/05/20 00:25:46;;;;;;;23.20;17.30;;;;;;;12.05;84.12;100897.23;218296;1256;141713;-65
2023/05/20 00:30:51;;;;;;;23.00;15.20;;;;;;;12.04;84.15;100897.85;218281;1254;140648;-65
2023/05/20 00:35:56;;;;;;;28.00;18.80;;;;;;;12.04;84.16;100903.57;218998;1256;142720;-65
2023/05/20 00:41:00;;;;;;;23.40;14.90;;;;;;;12.04;83.98;100897.77;218777;1254;141058;-66
2023/05/20 00:46:04;;;;;;;17.70;16.00;;;;;;;12.02;84.32;100895.64;218959;1256;140375;-65
2023/05/20 00:51:10;;;;;;;23.40;16.20;;;;;;;12.03;84.35;100891.98;217931;1256;140789;-65
2023/05/20 00:56:16;;;;;;;21.90;15.40;;;;;;;12.03;84.68;100896.83;218767;1258;141931;-65
2023/05/20 01:01:21;;;;;;;19.60;13.20;;;;;;;12.01;84.69;100896.80;217969;1259;141657;-65
2023/05/20 01:06:27;;;;;;;23.60;16.60;;;;;;;11.96;84.73;100895.02;217971;1254;141379;-65
2023/05/20 01:11:38;;;;;;;21.20;17.00;;;;;;;11.95;84.63;100896.67;218902;1256;140064;-65
2023/05/20 01:16:44;;;;;;;19.80;16.30;;;;;;;11.97;84.86;100896.66;218623;1256;141401;-66
2023/05/20 01:21:53;;;;;;;27.80;18.10;;;;;;;11.97;84.86;100893.41;218205;1254;141743;-66
2023/05/20 01:26:58;;;;;;;20.30;17.70;;;;;;;11.97;85.12;100885.44;218117;1254;140433;-65
2023/05/20 01:32:11;;;;;;;26.20;16.80;;;;;;;11.96;85.00;100883.42;217876;1254;140422;-64
2023/05/20 01:37:18;;;;;;;21.90;16.80;;;;;;;11.96;84.95;100884.70;219872;1254;140922;-65
2023/05/20 01:42:26;;;;;;;26.40;18.10;;;;;;;11.96;85.08;100880.55;219127;1254;140955;-65
2023/05/20 01:47:32;;;;;;;20.40;16.90;;;;;;;11.97;85.09;100871.95;219520;1254;141516;-67
2023/05/20 01:52:37;;;;;;;23.70;16.90;;;;;;;11.99;84.87;100868.45;218725;1254;141271;-66
2023/05/20 01:57:41;;;;;;;23.20;16.80;;;;;;;12.00;84.87;100863.02;219975;1254;141352;-66
2023/05/20 02:02:46;;;;;;;20.40;15.30;;;;;;;12.01;85.04;100864.70;220767;1254;141154;-66
2023/05/20 02:07:51;;;;;;;20.30;15.50;;;;;;;12.03;85.10;100866.11;220586;1254;140167;-66
2023/05/20 02:12:56;;;;;;;22.80;17.60;;;;;;;12.06;84.93;100859.69;220737;1254;140821;-67
2023/05/20 02:18:01;;;;;;;21.90;15.80;;;;;;;12.08;85.00;100856.05;219563;1254;141415;-66
2023/05/20 02:23:05;;;;;;;25.10;15.60;;;;;;;12.08;84.90;100851.16;219883;1254;140992;-66
2023/05/20 02:28:10;;;;;;;16.60;14.20;;;;;;;12.08;85.03;100853.02;219320;1255;141648;-66
2023/05/20 02:33:14;;;;;;;17.30;13.90;;;;;;;12.07;85.07;100850.27;218029;1254;140575;-66
2023/05/20 02:38:18;;;;;;;24.70;16.40;;;;;;;12.07;85.08;100845.16;218967;1256;140150;-65
2023/05/20 02:43:24;;;;;;;18.70;16.20;;;;;;;12.06;85.39;100845.79;219247;1254;140417;-65
2023/05/20 02:48:30;;;;;;;22.40;16.40;;;;;;;12.03;85.25;100854.93;218742;1254;140277;-65
2023/05/20 02:53:40;;;;;;;17.30;13.10;;;;;;;12.02;85.32;100855.48;218267;1254;141900;-65
2023/05/20 02:58:44;;;;;;;21.90;16.30;;;;;;;12.02;85.27;100852.80;218885;1254;140481;-65
2023/05/20 03:03:49;;;;;;;20.90;15.60;;;;;;;12.05;85.62;100858.09;218427;1254;141219;-66
2023/05/20 03:08:54;;;;;;;19.00;14.60;;;;;;;12.06;85.68;100854.92;219324;1254;140407;-66
2023/05/20 03:13:58;;;;;;;15.00;13.50;;;;;;;12.05;85.62;100852.13;218399;1257;141227;-66
2023/05/20 03:19:04;;;;;;;17.30;15.50;;;;;;;12.07;85.71;100858.86;217969;1254;141128;-66
2023/05/20 03:24:09;;;;;;;17.70;14.70;;;;;;;12.07;85.74;100867.90;218101;1257;689852;-67
2023/05/20 03:29:16;;;;;;;17.20;14.30;;;;;;;12.09;85.86;100871.05;219381;1258;140737;-67
2023/05/20 03:34:21;;;;;;;19.90;15.20;;;;;;;12.12;85.48;100878.81;218130;1259;140704;-66
2023/05/20 03:39:25;;;;;;;18.40;14.90;;;;;;;12.14;86.05;100883.85;218752;1256;141302;-66
2023/05/20 03:44:29;;;;;;;25.90;17.40;;;;;;;12.17;85.84;100878.45;218656;1256;140340;-70
2023/05/20 03:49:33;;;;;;;21.90;14.90;;;;;;;12.23;85.93;100880.86;219082;1254;140347;-67
2023/05/20 03:54:38;;;;;;;23.30;16.80;;;;;;;12.27;85.92;100891.10;218604;1256;141115;-66
2023/05/20 03:59:43;;;;;;;30.10;14.70;;;;;;;12.27;85.80;100897.68;219524;1256;141044;-67
2023/05/20 04:04:51;;;;;;;17.30;13.50;;;;;;;12.28;85.87;100898.41;220745;1256;140695;-69
2023/05/20 04:09:58;;;;;;;17.80;14.80;;;;;;;12.33;85.61;100907.88;220592;1256;140121;-70
2023/05/20 04:15:02;;;;;;;20.30;14.90;;;;;;;12.40;85.78;100910.05;220486;1256;140902;-70
2023/05/20 04:20:10;;;;;;;19.70;14.20;;;;;;;12.47;85.52;100910.25;219780;1258;140704;-67
2023/05/20 04:25:15;;;;;;;18.00;14.90;;;;;;;12.55;85.66;100909.11;219187;1256;141171;-65
2023/05/20 04:30:20;;;;;;;23.10;17.00;;;;;;;12.60;85.57;100908.27;218651;1256;140584;-67
2023/05/20 04:35:25;;;;;;;22.10;17.00;;;;;;;12.64;85.68;100909.67;219001;1256;141122;-65
2023/05/20 04:40:29;;;;;;;26.10;18.90;;;;;;;12.67;85.70;100905.50;217886;1257;141298;-67
2023/05/20 04:45:34;;;;;;;31.40;19.50;;;;;;;12.71;85.65;100899.30;218527;1256;143153;-66
2023/05/20 04:50:42;;;;;;;23.90;17.90;;;;;;;12.75;85.50;100906.42;218407;1254;142489;-65
2023/05/20 04:55:52;;;;;;;30.60;19.90;;;;;;;12.81;85.65;100910.77;217720;1256;160803;-66
2023/05/20 05:00:57;;;;;;;25.90;17.90;;;;;;;12.86;85.57;100909.55;217722;1259;140918;-66
2023/05/20 05:06:01;;;;;;;23.50;16.70;;;;;;;12.93;85.76;100908.38;218583;1256;140423;-65
2023/05/20 05:11:05;;;;;;;23.70;16.60;;;;;;;13.00;85.37;100902.70;219849;1256;140959;-65
2023/05/20 05:16:11;;;;;;;22.30;17.20;;;;;;;13.05;85.34;100901.09;217968;1257;140809;-64
2023/05/20 05:21:16;;;;;;;21.50;16.90;;;;;;;13.10;85.35;100905.28;217975;1255;141504;-64
2023/05/20 05:26:21;;;;;;;30.00;18.30;;;;;;;13.13;85.22;100909.28;218515;1256;140149;-65
2023/05/20 05:31:25;;;;;;;27.40;19.50;;;;;;;13.19;85.28;100910.27;219354;1256;140963;-65
2023/05/20 05:36:32;;;;;;;29.00;21.20;;;;;;;13.26;84.93;100912.17;218687;1256;142028;-68
2023/05/20 05:41:38;;;;;;;23.00;19.00;;;;;;;13.34;84.85;100915.16;219023;1255;140771;-68
2023/05/20 05:46:43;;;;;;;23.50;18.40;;;;;;;13.41;84.87;100912.78;220495;1256;141893;-68
2023/05/20 05:51:49;;;;;;;19.00;17.00;;;;;;;13.52;84.75;100916.46;220427;1255;141042;-67
2023/05/20 05:56:55;;;;;;;21.70;18.40;;;;;;;13.65;84.32;100921.98;220485;1255;140144;-67
2023/05/20 06:02:01;;;;;;;30.90;22.10;;;;;;;13.80;83.95;100919.44;220631;1255;140201;-67
2023/05/20 06:07:05;;;;;;;25.70;19.80;;;;;;;13.99;83.55;100921.01;220547;1255;140983;-65
2023/05/20 06:12:10;;;;;;;25.10;19.80;;;;;;;14.11;83.10;100921.77;220094;1255;141019;-66
2023/05/20 06:17:16;;;;;;;23.40;14.50;;;;;;;14.27;82.93;100920.50;218970;1255;142080;-64
2023/05/20 06:22:21;;;;;;;19.90;15.10;;;;;;;14.39;82.49;100918.54;218421;1255;140728;-64
2023/05/20 06:27:26;;;;;;;16.50;12.30;;;;;;;14.50;82.15;100915.99;219189;1257;140672;-66
2023/05/20 06:32:32;;;;;;;15.40;13.70;;;;;;;14.65;81.79;100913.66;218235;1256;141205;-66
2023/05/20 06:37:36;;;;;;;18.80;13.70;;;;;;;14.81;81.44;100911.68;218472;1257;141298;-67
2023/05/20 06:42:41;;;;;;;15.30;13.40;;;;;;;14.99;80.72;100909.66;218675;1257;142655;-67
2023/05/20 06:47:47;;;;;;;15.90;14.20;;;;;;;15.09;80.18;100907.16;218837;1256;141299;-69
2023/05/20 06:52:52;;;;;;;13.70;12.30;;;;;;;15.19;79.82;100906.33;218563;1255;140943;-69
2023/05/20 06:57:57;;;;;;;22.60;16.00;;;;;;;15.22;79.55;100906.77;218129;1256;140462;-69
2023/05/20 07:03:02;;;;;;;16.70;13.40;;;;;;;15.24;79.22;100899.38;218496;1256;141456;-69
2023/05/20 07:08:07;;;;;;;14.20;12.80;;;;;;;15.34;79.45;100901.80;218381;1254;140550;-69
2023/05/20 07:13:11;;;;;;;22.60;14.70;;;;;;;15.50;79.36;100895.06;218389;1256;140194;-67
2023/05/20 07:18:16;;;;;;;18.20;15.60;;;;;;;15.64;79.30;100895.77;219005;1256;140301;-67
2023/05/20 07:23:20;;;;;;;22.40;15.40;;;;;;;15.65;78.67;100889.65;218013;1257;140390;-67
2023/05/20 07:28:24;;;;;;;15.10;12.90;;;;;;;15.58;78.53;100892.75;218225;1257;140893;-67
2023/05/20 07:33:28;;;;;;;19.90;14.20;;;;;;;15.51;78.52;100892.27;218522;1259;141959;-67
2023/05/20 07:38:33;;;;;;;18.70;14.70;;;;;;;15.50;78.47;100889.95;219820;1257;141403;-67
2023/05/20 07:43:38;;;;;;;17.00;14.50;;;;;;;15.60;78.40;100897.19;219163;1255;140579;-67
2023/05/20 07:48:44;;;;;;;18.00;13.10;;;;;;;15.74;78.22;100897.89;218945;1259;140541;-68
2023/05/20 07:53:49;;;;;;;19.50;14.10;;;;;;;15.92;77.99;100896.23;218805;1255;140446;-67
2023/05/20 07:58:57;;;;;;;21.00;12.80;;;;;;;16.11;78.02;100891.52;220714;1257;140723;-67
2023/05/20 08:04:02;;;;;;;17.10;11.80;;;;;;;16.36;77.67;100887.41;220415;1256;140959;-68
2023/05/20 08:09:07;;;;;;;18.30;12.60;;;;;;;16.61;77.34;100883.48;220441;1256;141171;-68
2023/05/20 08:14:11;;;;;;;14.60;11.80;;;;;;;16.75;77.03;100878.58;220434;1255;140633;-68
2023/05/20 08:19:15;;;;;;;14.10;12.70;;;;;;;16.90;76.77;100877.26;218745;1256;140880;-66
2023/05/20 08:24:20;;;;;;;13.00;11.60;;;;;;;17.14;76.53;100869.45;219393;1256;140910;-66
2023/05/20 08:29:23;;;;;;;17.80;12.70;;;;;;;17.38;76.14;100860.45;219503;1256;140678;-66
2023/05/20 08:34:28;;;;;;;14.80;13.20;;;;;;;17.67;75.73;100857.79;220374;1257;141290;-64
2023/05/20 08:39:33;;;;;;;13.70;12.30;;;;;;;17.79;75.00;100856.82;218351;1256;140160;-64
2023/05/20 08:44:40;;;;;;;14.60;13.10;;;;;;;17.92;74.62;100860.73;218214;1256;141221;-66
2023/05/20 08:49:44;;;;;;;17.00;14.00;;;;;;;18.18;74.54;100858.58;218016;1259;140389;-66
2023/05/20 08:54:50;;;;;;;20.70;13.40;;;;;;;18.45;74.11;100855.33;218474;1256;139971;-67
2023/05/20 08:59:56;;;;;;;13.30;11.90;;;;;;;19.03;74.15;100844.83;218971;1256;140730;-70
2023/05/20 09:05:01;;;;;;;19.10;13.60;;;;;;;19.70;73.42;100840.46;217838;1255;141636;-68
2023/05/20 09:10:12;;;;;;;15.90;13.50;;;;;;;20.40;72.16;100837.94;218341;1256;140508;-71
2023/05/20 09:15:20;;;;;;;21.60;16.40;;;;;;;20.62;70.86;100841.33;217574;1259;141341;-66
2023/05/20 09:20:28;;;;;;;15.90;14.30;;;;;;;20.80;70.49;100843.79;217845;1257;140734;-69
2023/05/20 09:25:35;;;;;;;21.30;15.80;;;;;;;21.00;69.91;100838.56;218951;1256;142904;-66
2023/05/20 09:30:41;;;;;;;21.10;14.80;;;;;;;21.36;69.20;100833.43;218550;1257;238424;-66
2023/05/20 09:35:49;;;;;;;16.50;14.50;;;;;;;21.58;68.40;100832.33;219146;1257;141006;-64
2023/05/20 09:40:55;;;;;;;17.80;15.20;;;;;;;21.98;67.92;100826.79;218946;1256;141312;-65
2023/05/20 09:46:00;;;;;;;16.80;14.10;;;;;;;22.24;66.91;100826.53;219602;1257;139783;-64
2023/05/20 09:51:08;;;;;;;20.30;16.10;;;;;;;22.21;66.21;100832.42;220068;1255;139923;-66
2023/05/20 09:56:20;;;;;;;18.20;15.70;;;;;;;22.19;65.63;100829.35;219130;1256;139889;-68
2023/05/20 10:01:25;;;;;;;16.90;15.20;;;;;;;22.16;65.72;100827.86;219358;1257;139957;-68
2023/05/20 10:06:42;;;;;;;17.50;15.00;;;;;;;22.27;65.44;100822.54;220426;1257;139936;-67
2023/05/20 10:12:16;;;;;;;18.10;15.80;;;;;;;22.17;64.92;100822.84;219917;1256;141529;-67
2023/05/20 10:17:45;;;;;;;18.40;16.50;;;;;;;21.99;64.73;100821.95;218290;1257;140974;-67
2023/05/20 10:22:57;;;;;;;17.60;14.10;;;;;;;21.98;65.24;100821.09;218133;1259;141181;-66
2023/05/20 10:28:08;;;;;;;9.30;8.40;;;;;;;22.12;64.98;100819.63;218985;1257;140235;-67
2023/05/20 10:33:18;;;;;;;15.30;12.90;;;;;;;22.05;64.45;100819.08;218885;1257;140130;-64
2023/05/20 10:38:24;;;;;;;13.90;12.80;;;;;;;22.38;64.35;100808.19;218444;1257;140504;-66
2023/05/20 10:43:29;;;;;;;14.20;12.90;;;;;;;22.73;64.30;100801.73;218900;1257;140214;-66
2023/05/20 10:48:33;;;;;;;16.20;13.50;;;;;;;22.86;64.12;100794.15;218037;1255;141099;-66
2023/05/20 10:53:40;;;;;;;16.50;14.90;;;;;;;22.87;63.43;100782.68;218118;1257;139623;-66
2023/05/20 10:58:44;;;;;;;;;;;;;;;22.81;63.23;100785.02;217775;1257;140283;-66
2023/05/20 11:03:50;;;;;;;16.90;14.30;;;;;;;22.59;63.07;100777.86;220012;1257;126956;-65
2023/05/20 11:09:06;;;;;;;16.20;14.60;;;;;;;22.40;63.34;100772.80;217536;1257;140391;-66
2023/05/20 11:14:13;;;;;;;17.80;16.10;;;;;;;22.48;63.45;100767.23;217867;1259;141581;-67
2023/05/20 11:19:20;;;;;;;18.00;16.00;;;;;;;22.64;63.61;100762.20;218593;1257;139526;-66
2023/05/20 11:24:25;;;;;;;;;;;;;;;22.93;63.48;100756.11;218488;1255;139864;-66
2023/05/20 11:29:31;;;;;;;16.00;13.70;;;;;;;23.10;63.03;100751.64;219785;1257;127713;-66
2023/05/20 11:34:36;;;;;;;17.80;16.10;;;;;;;23.15;62.71;100750.21;218674;1257;140313;-67
2023/05/20 11:39:41;;;;;;;17.50;15.20;;;;;;;23.17;62.85;100750.40;219509;1255;141621;-67
2023/05/20 11:44:47;;;;;;;14.30;12.80;;;;;;;23.34;62.22;100752.54;218621;1259;141400;-66
2023/05/20 11:49:55;;;;;;;18.00;14.20;;;;;;;23.29;62.29;100746.30;217830;1257;140493;-67
2023/05/20 11:55:00;;;;;;;15.60;14.20;;;;;;;23.47;62.39;100739.89;219213;1259;140758;-68
2023/05/20 12:00:09;;;;;;;15.40;14.00;;;;;;;23.65;62.38;100736.09;219803;1257;140416;-67
2023/05/20 12:05:15;;;;;;;19.10;15.70;;;;;;;23.49;62.08;100736.11;218772;1257;139606;-66
2023/05/20 12:10:23;;;;;;;15.00;13.60;;;;;;;23.45;61.93;100730.22;219964;1257;139339;-66
2023/05/20 12:15:29;;;;;;;18.40;14.60;;;;;;;23.60;61.83;100724.20;219784;1257;140264;-66
2023/05/20 12:20:35;;;;;;;23.10;16.50;;;;;;;23.64;61.56;100721.77;219390;1257;139659;-65
2023/05/20 12:25:41;;;;;;;16.20;14.40;;;;;;;23.77;61.20;100712.10;219830;1257;139958;-66
2023/05/20 12:30:49;;;;;;;15.90;13.60;;;;;;;24.05;61.14;100698.84;218006;1257;139831;-65
2023/05/20 12:35:56;;;;;;;17.00;15.30;;;;;;;24.26;61.05;100692.68;219068;1256;141206;-66
2023/05/20 12:41:01;;;;;;;16.10;14.30;;;;;;;24.37;60.73;100694.76;219000;1257;140312;-68
2023/05/20 12:46:06;;;;;;;18.60;16.00;;;;;;;24.26;60.05;100686.77;219142;1257;142674;-68
2023/05/20 12:51:12;;;;;;;20.90;18.30;;;;;;;24.00;59.79;100679.15;219008;1257;139686;-68
2023/05/20 12:56:18;;;;;;;19.40;14.60;;;;;;;24.08;60.38;100674.15;218626;1257;153411;-67
2023/05/20 13:01:24;;;;;;;15.60;13.70;;;;;;;24.46;59.77;100673.04;219023;1257;139346;-69
2023/05/20 13:06:30;;;;;;;15.00;13.20;;;;;;;24.60;59.38;100671.20;218191;1256;139926;-68
2023/05/20 13:11:38;;;;;;;14.60;13.00;;;;;;;24.77;59.19;100664.79;218955;1257;140119;-69
2023/05/20 13:16:43;;;;;;;18.40;15.70;;;;;;;25.03;58.84;100655.77;219215;1259;139809;-68
2023/05/20 13:21:53;;;;;;;14.30;13.00;;;;;;;25.22;58.53;100654.67;218006;1259;139443;-68
2023/05/20 13:27:00;;;;;;;19.30;15.30;;;;;;;24.98;58.17;100653.05;218258;1259;139885;-66
2023/05/20 13:32:06;;;;;;;17.70;11.90;;;;;;;24.73;57.44;100644.65;218499;1257;139913;-66
2023/05/20 13:37:12;;;;;;;12.20;11.10;;;;;;;24.81;57.84;100632.41;219529;1259;141456;-67
2023/05/20 13:42:20;;;;;;;16.00;12.20;;;;;;;24.66;56.74;100628.44;220689;1255;139833;-69
2023/05/20 13:47:25;;;;;;;17.60;14.90;;;;;;;24.77;57.66;100630.37;220571;1257;140081;-69
2023/05/20 13:52:31;;;;;;;18.90;13.20;;;;;;;25.13;57.68;100633.10;220778;1257;141829;-69
2023/05/20 13:57:38;;;;;;;23.80;12.80;;;;;;;25.08;57.37;100632.52;220244;1256;141726;-68
2023/05/20 14:02:43;;;;;;;11.70;10.60;;;;;;;24.79;56.81;100628.37;220490;1257;141413;-69
2023/05/20 14:07:48;;;;;;;14.50;11.40;;;;;;;24.70;56.81;100626.41;219591;1257;139871;-69
2023/05/20 14:12:54;;;;;;;12.10;10.60;;;;;;;24.60;56.47;100622.80;219733;1258;140026;-68
2023/05/20 14:18:05;;;;;;;9.60;8.60;;;;;;;24.37;56.52;100613.31;218969;1259;139707;-67
2023/05/20 14:23:12;;;;;;;19.00;12.60;;;;;;;24.27;56.20;100602.92;219042;1259;140601;-68
2023/05/20 14:28:23;;;;;;;13.60;10.30;;;;;;;24.30;56.15;100599.52;218292;1259;140337;-68
2023/05/20 14:33:31;;;;;;;15.20;11.30;;;;;;;24.27;55.78;100598.77;218528;1259;140491;-68
2023/05/20 14:38:43;;;;;;;11.80;10.60;;;;;;;24.31;55.92;100591.33;217996;1260;140944;-69
2023/05/20 14:43:58;;;;;;;12.30;10.70;;;;;;;24.50;56.00;100593.46;217885;1260;141225;-67
2023/05/20 14:49:07;;;;;;;12.10;10.80;;;;;;;24.67;56.00;100592.34;218352;1257;140355;-68
2023/05/20 14:54:23;;;;;;;12.90;10.90;;;;;;;24.56;55.63;100586.08;218503;1257;140599;-67
2023/05/20 14:59:31;;;;;;;13.00;11.80;;;;;;;24.35;55.17;100577.02;218394;1256;139199;-67
2023/05/20 15:04:36;;;;;;;13.50;12.30;;;;;;;24.41;55.84;100575.92;218097;1258;140799;-67
2023/05/20 15:09:41;;;;;;;14.40;11.60;;;;;;;24.47;55.64;100570.91;218696;1257;140956;-67
2023/05/20 15:14:45;;;;;;;12.80;11.70;;;;;;;24.48;55.36;100569.67;218486;1254;139829;-67
2023/05/20 15:19:50;;;;;;;13.60;11.50;;;;;;;24.50;55.27;100566.14;219932;1254;140846;-68
2023/05/20 15:24:56;;;;;;;;;;;;;;;24.49;54.97;100557.78;217722;1258;1090710;-67
2023/05/20 15:30:02;;;;;;;13.10;11.50;;;;;;;24.48;55.22;100552.14;219690;1254;207933;-68
2023/05/20 15:35:07;;;;;;;12.50;10.60;;;;;;;24.45;55.26;100547.15;219598;1258;140560;-67
2023/05/20 15:40:12;;;;;;;13.60;12.20;;;;;;;24.41;55.02;100539.08;220630;1254;140736;-70
2023/05/20 15:45:17;;;;;;;10.70;9.60;;;;;;;24.35;54.66;100532.13;219170;1254;143354;-70
2023/05/20 15:50:22;;;;;;;12.00;10.80;;;;;;;24.27;54.28;100535.28;220633;1255;140457;-70
2023/05/20 15:55:27;;;;;;;11.70;10.60;;;;;;;24.22;54.50;100531.33;220557;1257;140335;-70
2023/05/20 16:00:32;;;;;;;12.30;11.10;;;;;;;24.20;54.66;100536.19;220633;1254;140147;-71
2023/05/20 16:05:38;;;;;;;12.50;11.40;;;;;;;24.14;54.78;100536.90;218544;1257;141324;-69
2023/05/20 16:10:55;;;;;;;12.90;11.70;;;;;;;24.17;54.75;100537.21;218587;1259;245629;-70
2023/05/20 16:16:12;;;;;;;13.10;11.70;;;;;;;24.07;55.03;100540.13;219081;1257;141195;-68
2023/05/20 16:21:17;;;;;;;12.90;11.80;;;;;;;23.97;55.18;100534.39;218209;1256;139601;-67
2023/05/20 16:26:24;;;;;;;11.40;10.40;;;;;;;23.90;55.24;100529.84;217579;1259;140264;-66
2023/05/20 16:31:30;;;;;;;11.90;10.90;;;;;;;23.82;55.09;100529.80;219179;1257;140669;-66
2023/05/20 16:36:35;;;;;;;11.90;10.90;;;;;;;23.71;55.04;100529.42;218519;1255;140354;-65
2023/05/20 16:41:41;;;;;;;11.90;10.90;;;;;;;23.60;55.25;100530.27;218370;1257;140969;-66
2023/05/20 16:46:45;;;;;;;11.20;10.40;;;;;;;23.52;55.19;100523.80;218276;1258;142704;-67
2023/05/20 16:51:51;;;;;;;12.30;11.20;;;;;;;23.46;55.62;100521.39;218579;1257;140280;-66
2023/05/20 16:56:55;;;;;;;11.90;11.00;;;;;;;23.41;55.91;100517.46;218309;1257;139516;-66
2023/05/20 17:02:00;;;;;;;14.00;12.30;;;;;;;23.34;56.17;100518.73;218214;1260;140208;-67
2023/05/20 17:07:08;;;;;;;11.30;10.40;;;;;;;23.27;55.98;100514.28;218394;1257;140535;-66
2023/05/20 17:12:13;;;;;;;12.30;10.20;;;;;;;23.18;56.44;100511.14;219385;1257;139606;-64
2023/05/20 17:17:18;;;;;;;11.10;10.20;;;;;;;23.09;56.69;100512.44;218612;1257;139693;-68
2023/05/20 17:22:22;;;;;;;13.80;10.70;;;;;;;22.97;56.81;100521.95;220365;1257;139541;-65
2023/05/20 17:27:28;;;;;;;17.50;11.10;;;;;;;22.88;57.14;100524.62;219035;1258;139774;-66
2023/05/20 17:32:32;;;;;;;11.90;10.80;;;;;;;22.78;57.44;100523.11;218479;1257;140317;-66
2023/05/20 17:37:38;;;;;;;14.70;10.60;;;;;;;22.66;58.10;100523.51;220025;1254;139620;-68
2023/05/20 17:42:42;;;;;;;14.90;11.30;;;;;;;22.51;58.69;100522.92;220634;1256;140989;-67
2023/05/20 17:47:46;;;;;;;15.50;11.50;;;;;;;22.36;59.22;100528.04;220527;1257;139835;-68
2023/05/20 17:52:50;;;;;;;12.10;10.80;;;;;;;22.21;59.80;100528.90;220805;1256;140611;-66
2023/05/20 17:57:56;;;;;;;12.00;10.90;;;;;;;22.08;60.13;100531.73;219531;1255;139732;-65
2023/05/20 18:03:02;;;;;;;13.80;12.50;;;;;;;21.97;60.57;100524.91;220294;1256;139507;-67
2023/05/20 18:08:07;;;;;;;15.20;11.60;;;;;;;21.81;61.06;100523.73;217688;1259;141164;-69
2023/05/20 18:13:12;;;;;;;15.40;11.30;;;;;;;21.64;61.38;100521.56;218856;1255;141361;-68
2023/05/20 18:18:16;;;;;;;16.50;11.70;;;;;;;21.49;61.75;100524.43;218678;1257;140743;-69
2023/05/20 18:23:20;;;;;;;14.80;12.90;;;;;;;21.31;62.02;100524.63;218836;1259;140959;-67
2023/05/20 18:28:24;;;;;;;13.20;11.90;;;;;;;21.14;62.30;100522.96;217806;1257;140075;-68
2023/05/20 18:33:28;;;;;;;13.90;11.50;;;;;;;20.98;62.56;100515.86;218728;1256;141369;-69
2023/05/20 18:38:33;;;;;;;18.50;12.40;;;;;;;20.83;62.83;100516.36;218338;1257;141659;-68
2023/05/20 18:43:37;;;;;;;14.90;12.20;;;;;;;20.67;63.01;100519.73;217891;1259;141358;-68
2023/05/20 18:48:42;;;;;;;13.50;12.10;;;;;;;20.50;63.36;100525.98;218620;1257;140779;-67
2023/05/20 18:53:47;;;;;;;12.90;11.70;;;;;;;20.35;63.65;100526.81;218609;1256;140560;-67
2023/05/20 18:58:52;;;;;;;19.40;13.20;;;;;;;20.19;63.94;100526.73;218419;1256;141661;-71
2023/05/20 19:03:57;;;;;;;16.70;14.30;;;;;;;20.05;64.23;100533.41;218125;1256;140504;-69
2023/05/20 19:09:02;;;;;;;15.00;13.40;;;;;;;19.89;64.50;100529.20;218435;1256;140590;-67
2023/05/20 19:14:10;;;;;;;13.90;12.50;;;;;;;19.73;64.66;100529.86;219923;1256;141023;-70
2023/05/20 19:19:15;;;;;;;15.70;14.20;;;;;;;19.55;64.74;100528.88;217880;1259;141153;-71
2023/05/20 19:24:19;;;;;;;19.40;14.40;;;;;;;19.33;64.97;100524.64;218882;1258;141237;-70
2023/05/20 19:29:23;;;;;;;13.90;12.50;;;;;;;19.12;65.36;100529.32;219932;1255;140432;-69
2023/05/20 19:34:27;;;;;;;13.50;12.20;;;;;;;18.97;65.70;100533.33;220660;1256;141030;-69
2023/05/20 19:39:30;;;;;;;15.20;13.70;;;;;;;18.84;65.96;100530.63;219486;1256;140615;-67
2023/05/20 19:44:35;;;;;;;15.50;13.70;;;;;;;18.73;66.23;100532.83;220575;1256;141149;-70
2023/05/20 19:49:42;;;;;;;14.90;13.40;;;;;;;18.62;66.40;100530.38;220370;1256;140783;-67
2023/05/20 19:54:46;;;;;;;20.10;14.40;;;;;;;18.51;66.70;100536.66;220600;1255;141446;-67
2023/05/20 19:59:51;;;;;;;19.00;13.70;;;;;;;18.41;66.88;100535.56;219316;1256;140673;-67
2023/05/20 20:04:58;;;;;;;16.30;13.30;;;;;;;18.32;67.09;100536.36;219259;1256;140230;-70
2023/05/20 20:10:02;;;;;;;;;;;;;;;18.20;67.35;100538.86;218431;1259;141519;-66
2023/05/20 20:15:10;;;;;;;15.50;14.00;;;;;;;18.06;67.67;100541.29;218611;1259;126178;-66
2023/05/20 20:20:14;;;;;;;22.60;15.00;;;;;;;17.95;67.79;100546.88;218294;1256;140946;-66
2023/05/20 20:25:17;;;;;;;14.30;12.40;;;;;;;17.84;67.96;100540.13;218705;1256;140692;-66
2023/05/20 20:30:21;;;;;;;19.40;13.70;;;;;;;17.72;68.20;100535.65;218579;1256;140950;-66
2023/05/20 20:35:25;;;;;;;14.00;12.60;;;;;;;17.62;68.47;100539.95;218113;1256;140574;-65
2023/05/20 20:40:32;;;;;;;13.90;12.60;;;;;;;17.53;68.71;100546.30;218363;1256;140508;-66
2023/05/20 20:45:36;;;;;;;16.70;12.60;;;;;;;17.42;68.97;100550.54;218397;1257;141487;-67
2023/05/20 20:50:40;;;;;;;17.00;12.20;;;;;;;17.30;69.21;100553.76;219017;1255;141284;-66
2023/05/20 20:55:45;;;;;;;19.30;12.60;;;;;;;17.19;69.29;100560.08;218830;1255;140167;-67
2023/05/20 21:00:52;;;;;;;14.10;12.70;;;;;;;17.08;69.78;100560.17;218023;1257;141935;-66
2023/05/20 21:06:01;;;;;;;14.30;12.70;;;;;;;16.98;69.87;100559.55;218326;1256;141952;-67
2023/05/20 21:11:05;;;;;;;13.20;11.60;;;;;;;16.89;70.11;100562.04;218772;1257;140777;-67
2023/05/20 21:16:14;;;;;;;14.40;12.90;;;;;;;16.80;70.34;100564.83;219623;1255;140528;-67
2023/05/20 21:21:20;;;;;;;15.10;12.30;;;;;;;16.72;70.57;100570.63;217849;1257;141329;-66
2023/05/20 21:26:25;;;;;;;12.10;10.90;;;;;;;16.61;70.76;100564.73;220742;1256;142192;-68
2023/05/20 21:31:30;;;;;;;17.70;13.30;;;;;;;16.51;71.01;100563.98;218811;1256;140819;-67
2023/05/20 21:36:36;;;;;;;12.10;10.90;;;;;;;16.46;71.18;100563.84;218344;1256;141290;-66
2023/05/20 21:41:40;;;;;;;14.10;11.60;;;;;;;16.43;71.42;100564.33;220642;1255;140261;-66
2023/05/20 21:46:45;;;;;;;11.80;10.80;;;;;;;16.38;71.60;100566.60;220680;1255;141507;-67
2023/05/20 21:51:52;;;;;;;11.70;10.60;;;;;;;16.34;71.69;100560.23;220578;1255;141025;-67
2023/05/20 21:56:57;;;;;;;16.00;11.40;;;;;;;16.29;71.86;100556.95;219007;1255;142654;-69
2023/05/20 22:02:01;;;;;;;11.70;10.60;;;;;;;16.24;71.88;100555.49;219391;1256;140380;-67
2023/05/20 22:07:09;;;;;;;12.30;10.70;;;;;;;16.17;71.94;100551.03;219328;1255;140711;-68
2023/05/20 22:12:17;;;;;;;12.50;11.20;;;;;;;16.09;72.04;100553.14;218245;1256;143050;-68
2023/05/20 22:17:22;;;;;;;11.00;9.90;;;;;;;16.00;72.24;100547.31;218465;1257;140804;-66
2023/05/20 22:22:29;;;;;;;12.10;10.70;;;;;;;15.93;72.49;100549.59;218821;1256;140255;-70
2023/05/20 22:27:35;;;;;;;10.70;9.60;;;;;;;15.83;72.52;100547.92;218025;1256;140530;-70
2023/05/20 22:32:40;;;;;;;13.10;9.80;;;;;;;15.72;72.76;100548.57;218066;1259;140100;-69
2023/05/20 22:37:46;;;;;;;11.80;10.10;;;;;;;15.65;73.05;100548.48;218731;1256;141213;-72